Terminal Aerodrome Forecast
Issued by NWS Sioux Falls, SD

Home | Current Version | Previous Version | Graphics & Text | Print | Product List | Glossary On
Versions: 1 2 3 4 5 6 7 8 9 10 11 12 13 14 15 16 17 18 19 20 21 22 23 24 25 26 27 28 29 30 31 32 33 34 35 36 37 38
000
FTUS43 KFSD 212320
TAFSUX
TAF
KSUX 212320Z 2200/2224 33004KT P6SM FEW200
     FM220900 32009KT P6SM BKN025
     FM221100 32009KT P6SM BKN015
     FM221300 32011KT P6SM BKN008
     FM222000 32013KT P6SM BKN025=

USA.gov is the U.S. government's official web portal to all federal, state and local government web resources and services.